createdAt,value
2019-03-25T00:01:30.804Z,4.70
2019-03-25T00:03:59.366Z,4.60
2019-03-25T00:06:27.930Z,4.60
2019-03-25T00:09:04.988Z,4.60
2019-03-25T00:11:26.791Z,4.50
2019-03-25T00:13:55.607Z,4.50
2019-03-25T00:16:24.189Z,4.40
2019-03-25T00:18:52.730Z,4.30
2019-03-25T00:21:21.320Z,4.30
2019-03-25T00:23:49.890Z,4.30
2019-03-25T00:26:18.455Z,4.30
2019-03-25T00:28:47.030Z,4.20
2019-03-25T00:31:15.600Z,4.20
2019-03-25T00:33:44.229Z,4.20
2019-03-25T00:36:12.802Z,4.10
2019-03-25T00:38:41.371Z,4.00
2019-03-25T00:41:09.943Z,4.00
2019-03-25T00:43:38.529Z,3.90
2019-03-25T00:46:07.138Z,3.90
2019-03-25T00:48:35.730Z,3.90
2019-03-25T00:51:04.280Z,3.90
2019-03-25T00:53:32.865Z,3.90
2019-03-25T00:56:01.496Z,3.90
2019-03-25T00:58:30.031Z,3.90
2019-03-25T01:00:58.602Z,3.80
2019-03-25T01:03:27.268Z,3.80
2019-03-25T01:05:55.817Z,3.60
2019-03-25T01:08:24.384Z,3.50
2019-03-25T01:10:52.942Z,3.60
2019-03-25T01:13:21.987Z,3.50
2019-03-25T01:15:50.578Z,3.50
2019-03-25T01:18:19.135Z,3.50
2019-03-25T01:20:47.722Z,3.40
2019-03-25T01:23:16.364Z,3.30
2019-03-25T01:25:44.941Z,3.30
2019-03-25T01:28:13.504Z,3.20
2019-03-25T01:30:42.050Z,3.20
2019-03-25T01:33:10.565Z,3.10
2019-03-25T01:35:39.187Z,3.10
2019-03-25T01:38:07.707Z,3.00
2019-03-25T01:40:36.282Z,3.00
2019-03-25T01:43:05.037Z,3.00
2019-03-25T01:45:33.581Z,2.90
2019-03-25T01:48:02.179Z,2.90
2019-03-25T01:50:30.772Z,2.90
2019-03-25T01:52:59.314Z,2.90
2019-03-25T01:55:27.906Z,2.90
2019-03-25T01:57:56.448Z,2.80
2019-03-25T02:00:25.033Z,2.80
2019-03-25T02:02:53.610Z,2.80
2019-03-25T02:05:22.183Z,2.70
2019-03-25T02:07:50.757Z,2.80
2019-03-25T02:10:19.534Z,2.80
2019-03-25T02:12:48.227Z,2.80
2019-03-25T02:15:16.947Z,2.90
2019-03-25T02:17:53.339Z,2.90
2019-03-25T02:20:26.566Z,2.90
2019-03-25T02:22:52.257Z,3.00
2019-03-25T02:25:25.709Z,3.00
2019-03-25T02:27:51.172Z,3.10
2019-03-25T02:30:19.766Z,3.10
2019-03-25T02:32:48.594Z,3.20
2019-03-25T02:35:17.173Z,3.10
2019-03-25T02:37:45.742Z,3.20
2019-03-25T02:40:14.354Z,3.20
2019-03-25T02:42:42.927Z,3.30
2019-03-25T02:45:11.664Z,3.30
2019-03-25T02:47:40.379Z,3.40
2019-03-25T02:50:09.189Z,3.50
2019-03-25T02:52:38.111Z,3.50
2019-03-25T02:55:08.308Z,3.50
2019-03-25T02:57:36.955Z,3.40
2019-03-25T03:00:08.279Z,3.40
2019-03-25T03:02:36.823Z,3.30
2019-03-25T03:05:07.089Z,3.20
2019-03-25T03:07:35.719Z,3.20
2019-03-25T03:10:06.158Z,3.20
2019-03-25T03:12:34.903Z,3.10
2019-03-25T03:15:04.319Z,3.10
2019-03-25T03:17:32.918Z,3.10
2019-03-25T03:20:01.472Z,3.10
2019-03-25T03:22:30.039Z,3.20
2019-03-25T03:24:58.606Z,3.20
2019-03-25T03:29:57.068Z,3.20
2019-03-25T03:32:25.632Z,3.10
2019-03-25T03:34:54.319Z,3.10
2019-03-25T03:37:22.978Z,3.10
2019-03-25T03:39:51.926Z,3.10
2019-03-25T03:42:21.219Z,3.10
2019-03-25T03:44:49.796Z,3.10
2019-03-25T03:47:18.351Z,3.10
2019-03-25T03:49:46.947Z,3.10
2019-03-25T03:52:15.753Z,3.00
2019-03-25T03:54:45.282Z,3.00
2019-03-25T03:57:14.412Z,3.00
2019-03-25T03:59:43.619Z,3.00
2019-03-25T04:02:12.556Z,2.90
2019-03-25T04:04:41.115Z,2.90
2019-03-25T04:07:09.704Z,2.90
2019-03-25T04:09:38.383Z,2.90
2019-03-25T04:12:07.198Z,2.90
2019-03-25T04:14:35.775Z,2.90
2019-03-25T04:17:04.521Z,2.90
2019-03-25T04:19:33.460Z,2.90
2019-03-25T04:22:02.112Z,3.00
2019-03-25T04:24:30.662Z,3.00
2019-03-25T04:26:59.254Z,3.00
2019-03-25T04:29:27.812Z,3.00
2019-03-25T04:31:56.659Z,3.00
2019-03-25T04:34:25.246Z,3.00
2019-03-25T04:36:53.891Z,3.00
2019-03-25T04:39:22.483Z,3.00
2019-03-25T04:41:51.053Z,3.00
2019-03-25T04:44:19.623Z,3.00
2019-03-25T04:46:48.214Z,3.00
2019-03-25T04:49:16.774Z,3.00
2019-03-25T04:51:45.636Z,3.10
2019-03-25T04:54:14.230Z,3.10
2019-03-25T04:56:42.788Z,3.10
2019-03-25T04:59:11.395Z,3.20
2019-03-25T05:01:39.956Z,3.20
2019-03-25T05:04:08.520Z,3.30
2019-03-25T05:06:37.099Z,3.30
2019-03-25T05:09:06.091Z,3.40
2019-03-25T05:11:34.658Z,3.40
2019-03-25T05:14:03.254Z,3.40
2019-03-25T05:16:31.803Z,3.50
2019-03-25T05:19:00.379Z,3.50
2019-03-25T05:21:28.977Z,3.50
2019-03-25T05:23:57.535Z,3.50
2019-03-25T05:26:26.119Z,3.50
2019-03-25T05:28:54.738Z,3.50
2019-03-25T05:31:23.224Z,3.60
2019-03-25T05:33:51.818Z,3.60
2019-03-25T05:36:20.372Z,3.60
2019-03-25T05:38:49.334Z,3.60
2019-03-25T05:41:17.902Z,3.60
2019-03-25T05:43:46.466Z,3.60
2019-03-25T05:46:14.970Z,3.60
2019-03-25T05:48:43.959Z,3.60
2019-03-25T05:51:12.842Z,3.50
2019-03-25T05:53:41.452Z,3.50
2019-03-25T05:56:09.994Z,3.50
2019-03-25T05:58:38.564Z,3.50
2019-03-25T06:01:07.226Z,3.60
2019-03-25T06:03:35.786Z,3.60
2019-03-25T06:06:04.444Z,3.70
2019-03-25T06:08:32.986Z,3.70
2019-03-25T06:11:01.493Z,3.90
2019-03-25T06:13:30.070Z,3.90
2019-03-25T06:15:58.651Z,3.90
2019-03-25T06:18:27.302Z,4.00
2019-03-25T06:20:55.868Z,4.00
2019-03-25T06:23:24.430Z,4.10
2019-03-25T06:25:53.010Z,4.10
2019-03-25T06:28:21.648Z,4.10
2019-03-25T06:30:50.272Z,4.20
2019-03-25T06:33:18.941Z,4.20
2019-03-25T06:35:47.558Z,4.30
2019-03-25T06:38:16.147Z,4.10
2019-03-25T06:40:44.730Z,4.20
2019-03-25T06:43:13.309Z,4.10
2019-03-25T06:45:42.154Z,4.10
2019-03-25T06:48:11.104Z,4.10
2019-03-25T06:50:39.742Z,4.20
2019-03-25T06:53:08.333Z,4.30
2019-03-25T06:55:36.894Z,4.40
2019-03-25T06:58:05.722Z,4.50
2019-03-25T07:00:34.309Z,4.60
2019-03-25T07:03:02.868Z,4.60
2019-03-25T07:05:31.468Z,4.70
2019-03-25T07:08:00.018Z,4.90
2019-03-25T07:10:33.949Z,5.10
2019-03-25T07:13:03.262Z,5.20
2019-03-25T07:15:31.967Z,5.40
2019-03-25T07:18:00.947Z,5.40
2019-03-25T07:20:29.578Z,5.50
2019-03-25T07:22:58.144Z,5.50
2019-03-25T07:25:26.730Z,5.50
2019-03-25T07:27:55.303Z,5.50
2019-03-25T07:30:23.926Z,5.60
2019-03-25T07:32:52.605Z,5.70
2019-03-25T07:35:22.454Z,5.80
2019-03-25T07:37:51.213Z,6.00
2019-03-25T07:40:20.134Z,6.00
2019-03-25T07:42:48.737Z,6.10
2019-03-25T07:45:17.385Z,6.20
2019-03-25T07:47:45.998Z,6.10
2019-03-25T07:50:14.714Z,6.10
2019-03-25T07:52:43.296Z,6.10
2019-03-25T07:55:12.102Z,6.00
2019-03-25T07:57:48.138Z,5.80
2019-03-25T08:00:14.269Z,5.50
2019-03-25T08:02:43.033Z,5.40
2019-03-25T08:05:12.166Z,5.20
2019-03-25T08:07:40.723Z,5.10
2019-03-25T08:10:09.733Z,5.00
2019-03-25T08:12:38.316Z,4.90
2019-03-25T08:15:10.604Z,4.90
2019-03-25T08:17:39.165Z,4.90
2019-03-25T08:20:09.026Z,4.80
2019-03-25T08:22:37.604Z,4.80
2019-03-25T08:25:07.893Z,4.80
2019-03-25T08:27:36.458Z,4.70
2019-03-25T08:30:08.707Z,4.70
2019-03-25T08:32:37.381Z,4.70
2019-03-25T08:35:07.098Z,4.60
2019-03-25T08:37:35.735Z,4.50
2019-03-25T08:40:10.689Z,4.50
2019-03-25T08:42:39.418Z,4.40
2019-03-25T08:45:08.322Z,4.40
2019-03-25T08:47:36.881Z,4.40
2019-03-25T08:50:07.581Z,4.30
2019-03-25T08:52:36.083Z,4.30
2019-03-25T08:55:06.478Z,4.20
2019-03-25T08:57:35.782Z,4.10
2019-03-25T09:00:06.978Z,4.20
2019-03-25T09:02:35.535Z,4.20
2019-03-25T09:05:05.672Z,4.20
2019-03-25T09:07:34.286Z,4.20
2019-03-25T09:10:03.719Z,4.20
2019-03-25T09:12:32.310Z,4.30
2019-03-25T09:15:01.180Z,4.20
2019-03-25T09:17:29.786Z,4.30
2019-03-25T09:19:58.361Z,4.40
2019-03-25T09:22:26.906Z,4.40
2019-03-25T09:24:55.403Z,4.50
2019-03-25T09:27:25.534Z,4.50
2019-03-25T09:29:54.118Z,4.70
2019-03-25T09:32:22.814Z,4.80
2019-03-25T09:34:51.414Z,4.80
2019-03-25T09:37:19.968Z,4.90
2019-03-25T09:39:48.534Z,4.90
2019-03-25T09:42:17.102Z,5.00
2019-03-25T09:44:45.688Z,5.10
2019-03-25T09:47:14.327Z,5.20
2019-03-25T09:49:42.886Z,5.30
2019-03-25T09:52:11.523Z,5.30
2019-03-25T09:54:40.193Z,5.30
2019-03-25T09:57:08.826Z,5.30
2019-03-25T09:59:37.387Z,5.10
2019-03-25T10:02:05.979Z,5.20
2019-03-25T10:04:34.522Z,5.20
2019-03-25T10:07:03.390Z,5.10
2019-03-25T10:09:31.962Z,5.10
2019-03-25T10:12:00.517Z,5.20
2019-03-25T10:14:29.107Z,5.20
2019-03-25T10:16:57.663Z,5.20
2019-03-25T10:19:26.230Z,5.20
2019-03-25T10:21:54.810Z,5.20
2019-03-25T10:24:27.786Z,5.20
2019-03-25T10:26:53.630Z,5.30
2019-03-25T10:29:22.209Z,5.40
2019-03-25T10:31:50.863Z,5.60
2019-03-25T10:34:19.456Z,5.70
2019-03-25T10:36:47.997Z,5.80
2019-03-25T10:39:16.571Z,5.80
2019-03-25T10:41:45.146Z,5.70
2019-03-25T10:44:14.147Z,5.70
2019-03-25T10:46:42.741Z,5.60
2019-03-25T10:49:11.322Z,5.60
2019-03-25T10:51:40.207Z,5.50
2019-03-25T10:54:08.874Z,5.50
2019-03-25T10:56:37.543Z,5.40
2019-03-25T10:59:06.232Z,5.40
2019-03-25T11:01:34.821Z,5.20
2019-03-25T11:04:03.380Z,5.00
2019-03-25T11:06:31.966Z,4.90
2019-03-25T11:09:00.529Z,4.90
2019-03-25T11:11:29.478Z,5.00
2019-03-25T11:13:58.233Z,5.20
2019-03-25T11:16:26.809Z,5.40
2019-03-25T11:18:55.364Z,5.50
2019-03-25T11:21:23.954Z,5.70
2019-03-25T11:23:52.530Z,5.80
2019-03-25T11:26:21.185Z,5.90
2019-03-25T11:28:50.087Z,6.10
2019-03-25T11:31:18.963Z,6.20
2019-03-25T11:33:47.562Z,6.20
2019-03-25T11:36:16.131Z,6.10
2019-03-25T11:38:44.678Z,6.30
2019-03-25T11:41:13.373Z,6.40
2019-03-25T11:43:42.023Z,6.40
2019-03-25T11:46:10.662Z,6.50
2019-03-25T11:48:39.248Z,6.50
2019-03-25T11:51:08.134Z,6.40
2019-03-25T11:53:36.773Z,6.40
2019-03-25T11:56:05.404Z,6.40
2019-03-25T11:58:33.979Z,6.30
2019-03-25T12:01:02.550Z,6.00
2019-03-25T12:03:31.119Z,5.90
2019-03-25T12:06:00.059Z,5.90
2019-03-25T12:08:28.710Z,5.90
2019-03-25T12:10:57.318Z,6.10
2019-03-25T12:13:26.085Z,6.30
2019-03-25T12:15:54.982Z,6.40
2019-03-25T12:18:24.551Z,6.50
2019-03-25T12:20:53.146Z,6.60
2019-03-25T12:23:26.320Z,6.60
2019-03-25T12:25:52.243Z,6.70
2019-03-25T12:28:21.002Z,6.70
2019-03-25T12:30:50.687Z,6.70
2019-03-25T12:33:19.690Z,6.70
2019-03-25T12:35:48.672Z,6.80
2019-03-25T12:38:17.223Z,6.90
2019-03-25T12:40:45.813Z,7.20
2019-03-25T12:43:14.433Z,7.30
2019-03-25T12:45:43.095Z,7.50
2019-03-25T12:48:11.725Z,7.70
2019-03-25T12:50:40.390Z,7.90
2019-03-25T12:53:08.983Z,7.90
2019-03-25T12:55:37.590Z,7.90
2019-03-25T12:58:07.392Z,7.90
2019-03-25T13:00:38.987Z,8.00
2019-03-25T13:03:07.709Z,8.10
2019-03-25T13:05:36.999Z,8.10
2019-03-25T13:08:05.762Z,8.10
2019-03-25T13:10:34.317Z,8.20
2019-03-25T13:13:02.923Z,8.20
2019-03-25T13:15:31.832Z,8.40
2019-03-25T13:18:00.928Z,8.60
2019-03-25T13:20:29.531Z,8.60
2019-03-25T13:22:58.095Z,8.50
2019-03-25T13:25:26.695Z,8.40
2019-03-25T13:27:55.287Z,8.40
2019-03-25T13:30:24.000Z,8.30
2019-03-25T13:32:52.582Z,8.20
2019-03-25T13:35:21.136Z,8.10
2019-03-25T13:37:49.718Z,8.00
2019-03-25T13:40:18.700Z,8.10
2019-03-25T13:42:47.248Z,8.00
2019-03-25T13:45:16.380Z,7.90
2019-03-25T13:47:44.967Z,7.80
2019-03-25T13:50:13.872Z,7.70
2019-03-25T13:52:42.466Z,7.60
2019-03-25T13:55:11.092Z,7.30
2019-03-25T13:57:39.668Z,7.00
2019-03-25T14:00:09.203Z,6.80
2019-03-25T14:02:37.773Z,6.60
2019-03-25T14:05:07.159Z,6.50
2019-03-25T14:07:35.819Z,6.40
2019-03-25T14:10:07.687Z,6.30
2019-03-25T14:12:36.287Z,6.30
2019-03-25T14:15:07.150Z,6.30
2019-03-25T14:17:35.808Z,6.30
2019-03-25T14:20:06.927Z,6.40
2019-03-25T14:22:35.861Z,6.40
2019-03-25T14:25:05.679Z,6.40
2019-03-25T14:27:34.270Z,6.50
2019-03-25T14:30:13.724Z,6.40
2019-03-25T14:32:33.323Z,6.50
2019-03-25T14:35:01.944Z,6.50
2019-03-25T14:37:30.936Z,6.50
2019-03-25T14:39:59.599Z,6.50
2019-03-25T14:42:28.173Z,6.50
2019-03-25T14:44:56.744Z,6.40
2019-03-25T14:47:25.376Z,6.40
2019-03-25T14:49:53.991Z,6.40
2019-03-25T14:52:22.545Z,6.30
2019-03-25T14:54:51.144Z,6.40
2019-03-25T14:57:19.719Z,6.30
2019-03-25T14:59:50.103Z,6.10
2019-03-25T15:02:18.523Z,6.10
2019-03-25T15:04:47.104Z,6.00
2019-03-25T15:07:15.804Z,6.00
2019-03-25T15:09:44.387Z,5.90
2019-03-25T15:12:12.956Z,5.90
2019-03-25T15:14:41.575Z,6.00
2019-03-25T15:17:10.267Z,6.10
2019-03-25T15:19:38.827Z,6.10
2019-03-25T15:22:07.459Z,6.30
2019-03-25T15:24:36.008Z,6.30
2019-03-25T15:27:04.807Z,6.40
2019-03-25T15:29:33.391Z,6.40
2019-03-25T15:32:01.996Z,6.40
2019-03-25T15:34:30.539Z,6.40
2019-03-25T15:36:59.131Z,6.30
2019-03-25T15:39:27.956Z,6.40
2019-03-25T15:41:56.636Z,6.50
2019-03-25T15:44:25.214Z,6.50
2019-03-25T15:46:56.017Z,6.50
2019-03-25T15:49:23.999Z,6.60
2019-03-25T15:51:52.575Z,6.60
2019-03-25T15:54:21.159Z,6.60
2019-03-25T15:56:49.749Z,6.70
2019-03-25T15:59:18.315Z,6.70
2019-03-25T16:01:46.898Z,6.70
2019-03-25T16:04:15.443Z,6.80
2019-03-25T16:06:44.007Z,6.90
2019-03-25T16:09:12.593Z,7.00
2019-03-25T16:11:41.237Z,7.00
2019-03-25T16:14:09.809Z,7.00
2019-03-25T16:16:38.400Z,7.00
2019-03-25T16:19:07.231Z,6.90
2019-03-25T16:21:36.789Z,6.90
2019-03-25T16:24:05.618Z,6.80
2019-03-25T16:29:09.469Z,6.70
2019-03-25T16:31:38.070Z,6.70
2019-03-25T16:34:06.614Z,6.60
2019-03-25T16:36:35.110Z,6.60
2019-03-25T16:52:34.915Z,6.70
2019-03-25T16:55:05.205Z,6.50
2019-03-25T16:57:33.767Z,6.40
2019-03-25T17:00:02.425Z,6.30
2019-03-25T17:02:30.980Z,6.30
2019-03-25T17:04:59.534Z,6.20
2019-03-25T17:07:28.128Z,6.20
2019-03-25T17:09:56.671Z,6.20
2019-03-25T17:12:25.271Z,6.10
2019-03-25T17:14:53.833Z,6.00
2019-03-25T17:17:22.398Z,5.90
2019-03-25T17:19:50.977Z,5.90
2019-03-25T17:22:19.536Z,5.80
2019-03-25T17:24:48.095Z,5.70
2019-03-25T17:27:16.686Z,5.70
2019-03-25T17:29:45.547Z,5.60
2019-03-25T17:32:14.133Z,5.60
2019-03-25T17:34:42.706Z,5.50
2019-03-25T17:37:11.272Z,5.50
2019-03-25T17:39:39.848Z,5.50
2019-03-25T17:42:08.424Z,5.40
2019-03-25T17:44:37.082Z,5.40
2019-03-25T17:47:05.717Z,5.40
2019-03-25T17:49:34.288Z,5.30
2019-03-25T17:52:02.935Z,5.30
2019-03-25T17:54:31.570Z,5.20
2019-03-25T17:57:00.111Z,5.20
2019-03-25T17:59:28.701Z,5.10
2019-03-25T18:01:57.293Z,5.10
2019-03-25T18:04:26.120Z,5.10
2019-03-25T18:06:54.703Z,5.10
2019-03-25T18:09:23.263Z,5.00
2019-03-25T18:11:51.830Z,5.00
2019-03-25T18:14:20.414Z,5.00
2019-03-25T18:16:48.967Z,5.00
2019-03-25T18:19:17.634Z,4.90
2019-03-25T18:21:46.619Z,4.90
2019-03-25T18:24:15.259Z,4.80
2019-03-25T18:26:43.829Z,4.80
2019-03-25T18:29:12.400Z,4.80
2019-03-25T18:31:43.815Z,4.80
2019-03-25T18:34:11.240Z,4.70
2019-03-25T18:36:39.782Z,4.70
2019-03-25T18:39:08.429Z,4.60
2019-03-25T18:41:36.991Z,4.60
2019-03-25T18:44:05.688Z,4.70
2019-03-25T18:46:34.418Z,4.70
2019-03-25T18:49:02.999Z,4.70
2019-03-25T18:51:31.626Z,4.70
2019-03-25T18:54:00.194Z,4.70
2019-03-25T18:56:28.922Z,4.70
2019-03-25T18:58:57.622Z,4.70
2019-03-25T19:01:26.676Z,4.70
2019-03-25T19:03:55.283Z,4.70
2019-03-25T19:06:24.114Z,4.70
2019-03-25T19:08:53.015Z,4.70
2019-03-25T19:11:30.825Z,4.60
2019-03-25T19:13:52.397Z,4.60
2019-03-25T19:16:21.029Z,4.60
2019-03-25T19:18:49.614Z,4.60
2019-03-25T19:21:18.176Z,4.60
2019-03-25T19:23:47.045Z,4.50
2019-03-25T19:26:15.695Z,4.50
2019-03-25T19:28:44.245Z,4.50
2019-03-25T19:31:12.863Z,4.50
2019-03-25T19:33:41.413Z,4.50
2019-03-25T19:36:09.975Z,4.50
2019-03-25T19:38:38.550Z,4.50
2019-03-25T19:41:07.514Z,4.50
2019-03-25T19:43:36.068Z,4.50
2019-03-25T19:46:04.685Z,4.50
2019-03-25T19:48:33.272Z,4.60
2019-03-25T19:51:02.076Z,4.50
2019-03-25T19:53:30.966Z,4.60
2019-03-25T19:55:59.514Z,4.60
2019-03-25T19:58:28.111Z,4.60
2019-03-25T20:00:56.714Z,4.60
2019-03-25T20:03:25.724Z,4.60
2019-03-25T20:05:54.245Z,4.60
2019-03-25T20:08:22.815Z,4.60
2019-03-25T20:10:51.475Z,4.60
2019-03-25T20:13:20.087Z,4.60
2019-03-25T20:15:48.658Z,4.60
2019-03-25T20:18:17.599Z,4.60
2019-03-25T20:20:46.471Z,4.60
2019-03-25T20:23:15.576Z,4.70
2019-03-25T20:25:44.150Z,4.70
2019-03-25T20:28:15.079Z,4.70
2019-03-25T20:30:43.783Z,4.70
2019-03-25T20:33:12.902Z,4.70
2019-03-25T20:35:42.089Z,4.70
2019-03-25T20:38:10.635Z,4.70
2019-03-25T20:40:39.203Z,4.70
2019-03-25T20:43:07.877Z,4.70
2019-03-25T20:45:36.538Z,4.70
2019-03-25T20:48:05.154Z,4.60
2019-03-25T20:50:33.806Z,4.60
2019-03-25T20:53:02.337Z,4.60
2019-03-25T20:55:30.935Z,4.60
2019-03-25T20:57:59.457Z,4.60
2019-03-25T21:00:48.702Z,4.60
2019-03-25T21:03:17.531Z,4.60
2019-03-25T21:05:46.248Z,4.60
2019-03-25T21:08:14.812Z,4.60
2019-03-25T21:10:43.622Z,4.60
2019-03-25T21:13:12.274Z,4.60
2019-03-25T21:15:41.282Z,4.60
2019-03-25T21:18:10.074Z,4.60
2019-03-25T21:20:38.621Z,4.50
2019-03-25T21:23:07.193Z,4.50
2019-03-25T21:25:35.870Z,4.50
2019-03-25T21:28:04.558Z,4.50
2019-03-25T21:30:33.166Z,4.50
2019-03-25T21:33:01.763Z,4.40
2019-03-25T21:35:30.290Z,4.40
2019-03-25T21:37:58.881Z,4.40
2019-03-25T21:40:27.898Z,4.30
2019-03-25T21:42:56.453Z,4.30
2019-03-25T21:45:25.112Z,4.20
2019-03-25T21:47:53.797Z,4.20
2019-03-25T21:50:22.621Z,4.20
2019-03-25T21:52:51.212Z,4.10
2019-03-25T21:55:19.767Z,4.10
2019-03-25T21:57:48.431Z,4.10
2019-03-25T22:00:17.303Z,4.10
2019-03-25T22:02:45.868Z,4.10
2019-03-25T22:05:14.445Z,4.00
2019-03-25T22:07:43.632Z,4.00
2019-03-25T22:10:13.905Z,4.00
2019-03-25T22:12:42.678Z,3.90
2019-03-25T22:15:11.413Z,3.90
2019-03-25T22:17:40.067Z,3.90
2019-03-25T22:20:10.428Z,3.80
2019-03-25T22:22:39.441Z,3.80
2019-03-25T22:25:09.525Z,3.80
2019-03-25T22:27:38.149Z,3.80
2019-03-25T22:30:08.720Z,3.70
2019-03-25T22:32:37.344Z,3.80
2019-03-25T22:35:07.614Z,3.80
2019-03-25T22:37:36.808Z,3.70
2019-03-25T22:40:10.090Z,3.70
2019-03-25T22:42:38.933Z,3.70
2019-03-25T22:45:10.514Z,3.70
2019-03-25T22:47:39.206Z,3.70
2019-03-25T22:50:08.314Z,3.70
2019-03-25T22:52:36.858Z,3.70
2019-03-25T22:55:07.273Z,3.80
2019-03-25T22:57:35.839Z,3.80
2019-03-25T23:00:09.813Z,3.90
2019-03-25T23:02:38.554Z,3.90
2019-03-25T23:05:07.247Z,3.90
2019-03-25T23:07:35.885Z,3.90
2019-03-25T23:10:05.507Z,3.90
2019-03-25T23:12:34.131Z,4.00
2019-03-25T23:15:03.136Z,4.00
2019-03-25T23:17:31.690Z,4.10
2019-03-25T23:20:00.521Z,4.10
2019-03-25T23:22:29.153Z,4.10
2019-03-25T23:24:57.718Z,4.20
2019-03-25T23:27:26.221Z,4.20
2019-03-25T23:29:57.539Z,4.10
2019-03-25T23:32:26.985Z,4.20
2019-03-25T23:34:55.603Z,4.20
2019-03-25T23:37:24.219Z,4.20
2019-03-25T23:39:52.790Z,4.30
2019-03-25T23:42:21.376Z,4.30
2019-03-25T23:44:49.928Z,4.30
2019-03-25T23:47:18.530Z,4.30
2019-03-25T23:49:47.195Z,4.40
2019-03-25T23:52:18.466Z,4.30
2019-03-25T23:54:48.576Z,4.40
2019-03-25T23:57:17.148Z,4.40
2019-03-25T23:59:45.719Z,4.30
